PNC weather

Ponca City Regional Airport
Ponca City, Oklahoma, United States

Public forecast

Using degrees Fahrenheit for public forecast. Weather courtesy of forecast.io.

Current aviation weather report (METAR) for Ponca City Regional Airport

Retrieved 2020/05/25 09:53 UTC (1 hour ago):

KPNC 250953Z AUTO 00000KT 10SM OVC065 19/15 A2979 RMK AO2 SLP075 T01890150

Aviation forecast (TAF) for Ponca City Regional Airport

Retrieved 2020/05/25 06:51 UTC (4 hours ago):

TAF KPNC 250548Z 2506/2606 16008KT P6SM BKN045 FM250900 10010KT P6SM OVC015 FM251700 16006KT 6SM -SHRA OVC025 TEMPO 2520/2524 3SM TSRA BR OVC015CB FM260000 34010KT P6SM BKN030 PROB30 2600/2604 4SM -TSRA OVC025CB